Time;durP1;ratioP1;P1;durP2;ratioP2;P2;SDS_P1;SDS_P2;PMS_P1;PMS_P2;Temp;Humidity;BMP_temperature;BMP_pressure;BME280_temperature;BME280_humidity;BME280_pressure;Samples;Min_cycle;Max_cycle;Signal;HPM_P1;HPM_P2
2022/05/20 00:00:44;;;;;;;5.60;4.10;;;16.40;99.90;;;;;;5029868;22;20472;-74
2022/05/20 00:03:11;;;;;;;8.02;4.18;;;16.60;99.90;;;;;;5032361;28;20037;-74
2022/05/20 00:05:36;;;;;;;4.57;3.63;;;16.70;99.90;;;;;;5028414;28;20029;-74
2022/05/20 00:08:03;;;;;;;4.93;3.55;;;16.80;99.90;;;;;;5015853;28;20032;-74
2022/05/20 00:10:30;;;;;;;4.68;3.63;;;16.90;99.90;;;;;;5018679;28;20383;-74
2022/05/20 00:12:55;;;;;;;6.57;3.88;;;17.00;99.90;;;;;;5015063;28;20029;-75
2022/05/20 00:15:24;;;;;;;5.57;3.33;;;17.10;99.90;;;;;;5019262;28;20029;-74
2022/05/20 00:17:49;;;;;;;7.28;3.65;;;17.10;99.90;;;;;;5014028;28;20057;-73
2022/05/20 00:20:18;;;;;;;4.45;3.20;;;17.00;99.90;;;;;;5027846;28;20123;-73
2022/05/20 00:22:44;;;;;;;6.50;4.07;;;16.90;99.90;;;;;;5033528;28;20526;-73
2022/05/20 00:27:55;;;;;;;4.32;3.33;;;16.90;99.90;;;;;;5013999;28;20173;-74
2022/05/20 00:30:21;;;;;;;5.50;3.55;;;17.00;99.90;;;;;;5027341;28;20065;-74
2022/05/20 00:32:47;;;;;;;6.43;4.10;;;16.80;99.90;;;;;;5033327;28;20020;-73
2022/05/20 00:35:13;;;;;;;7.07;4.20;;;16.70;99.90;;;;;;5028986;28;20026;-74
2022/05/20 00:37:40;;;;;;;9.68;5.18;;;16.70;99.90;;;;;;4996048;28;20491;-73
2022/05/20 00:40:09;;;;;;;6.25;4.30;;;16.40;99.90;;;;;;5013314;28;20464;-73
2022/05/20 00:42:36;;;;;;;5.40;3.65;;;16.50;99.90;;;;;;5013176;28;20069;-74
2022/05/20 00:45:04;;;;;;;5.05;4.18;;;16.70;99.90;;;;;;5013666;28;20097;-74
2022/05/20 00:47:29;;;;;;;5.93;3.97;;;16.40;99.90;;;;;;5007590;28;20390;-74
2022/05/20 00:49:58;;;;;;;5.57;3.55;;;16.70;99.90;;;;;;5025814;28;20113;-75
2022/05/20 00:52:28;;;;;;;8.65;4.57;;;16.60;99.90;;;;;;5012777;28;20029;-75
2022/05/20 00:54:57;;;;;;;5.40;4.35;;;16.70;99.90;;;;;;5027831;28;20021;-75
2022/05/20 00:57:52;;;;;;;6.95;4.78;;;16.60;99.90;;;;;;5031443;28;20025;-76
2022/05/20 01:00:24;;;;;;;6.68;4.90;;;16.50;99.90;;;;;;5031493;28;20546;-75
2022/05/20 01:02:54;;;;;;;5.95;4.93;;;16.00;99.90;;;;;;5038307;28;20491;-75
2022/05/20 01:05:41;;;;;;;7.38;5.55;;;16.10;99.90;;;;;;5007246;28;20037;-73
2022/05/20 01:08:07;;;;;;;5.78;5.05;;;16.20;99.90;;;;;;5012988;28;20033;-74
2022/05/20 01:10:33;;;;;;;7.18;5.45;;;16.10;99.90;;;;;;5012001;28;20022;-74
2022/05/20 01:12:59;;;;;;;10.57;5.55;;;15.90;99.90;;;;;;4995466;28;20442;-75
2022/05/20 01:15:25;;;;;;;8.38;5.55;;;15.80;99.90;;;;;;5012868;28;20028;-74
2022/05/20 01:17:53;;;;;;;7.85;5.45;;;15.60;99.90;;;;;;5012805;28;20029;-74
2022/05/20 01:20:27;;;;;;;7.20;5.10;;;15.70;99.90;;;;;;5012066;28;20498;-74
2022/05/20 01:22:59;;;;;;;8.50;5.75;;;15.80;99.90;;;;;;5012677;28;20499;-74
2022/05/20 01:25:27;;;;;;;6.60;5.80;;;16.10;99.90;;;;;;4995028;28;20030;-74
2022/05/20 01:27:52;;;;;;;9.65;5.95;;;16.30;99.90;;;;;;5012595;28;20022;-73
2022/05/20 01:30:21;;;;;;;8.80;5.72;;;16.40;99.90;;;;;;5011929;28;20029;-74
2022/05/20 01:32:47;;;;;;;12.35;5.82;;;16.40;99.90;;;;;;5012749;28;20491;-74
2022/05/20 01:35:21;;;;;;;9.15;6.10;;;16.60;99.90;;;;;;5012286;28;20120;-73
2022/05/20 01:37:47;;;;;;;8.32;6.28;;;16.50;99.90;;;;;;5012504;28;20053;-74
2022/05/20 01:40:12;;;;;;;6.88;6.18;;;16.50;99.90;;;;;;5018354;28;20076;-74
2022/05/20 01:42:50;;;;;;;8.02;6.15;;;16.40;99.90;;;;;;5014248;28;20122;-74
2022/05/20 01:45:17;;;;;;;12.45;6.30;;;16.40;99.90;;;;;;5032296;28;20479;-74
2022/05/20 01:47:51;;;;;;;10.23;6.65;;;16.40;99.90;;;;;;5031920;28;20536;-74
2022/05/20 01:50:27;;;;;;;8.93;7.10;;;16.30;99.90;;;;;;5013795;28;20033;-74
2022/05/20 01:53:19;;;;;;;9.88;6.88;;;16.40;99.90;;;;;;5014223;28;20067;-74
2022/05/20 01:56:30;;;;;;;7.75;6.05;;;16.20;99.90;;;;;;5031246;28;20030;-74
2022/05/20 01:59:04;;;;;;;8.32;6.95;;;15.90;99.90;;;;;;4932257;29;20023;-74
2022/05/20 02:01:53;;;;;;;9.15;7.60;;;15.40;99.90;;;;;;4931494;29;20035;-74
2022/05/20 02:04:23;;;;;;;9.85;7.07;;;15.40;99.90;;;;;;4964371;28;20081;-74
2022/05/20 02:06:57;;;;;;;12.88;6.85;;;15.40;99.90;;;;;;5011825;28;20083;-74
2022/05/20 02:09:37;;;;;;;7.97;6.72;;;15.60;99.90;;;;;;5011936;28;20079;-75
2022/05/20 02:12:03;;;;;;;10.95;6.57;;;15.70;99.90;;;;;;5011280;28;20479;-75
2022/05/20 02:14:35;;;;;;;8.75;5.95;;;15.90;99.90;;;;;;5014011;28;20494;-73
2022/05/20 02:17:26;;;;;;;8.18;6.68;;;16.00;99.90;;;;;;5004954;28;20124;-75
2022/05/20 02:20:00;;;;;;;9.10;6.57;;;16.20;99.90;;;;;;5020007;28;20068;-74
2022/05/20 02:22:28;;;;;;;11.00;6.03;;;16.10;99.90;;;;;;5011131;28;20030;-72
2022/05/20 02:24:55;;;;;;;10.05;6.20;;;16.10;99.90;;;;;;5011803;28;20113;-75
2022/05/20 02:27:28;;;;;;;11.27;6.60;;;16.10;99.90;;;;;;5011666;28;20030;-75
2022/05/20 02:30:18;;;;;;;11.35;7.25;;;16.10;99.90;;;;;;4994218;28;20033;-73
2022/05/20 02:32:52;;;;;;;8.40;6.55;;;16.00;99.90;;;;;;5011697;28;20034;-75
2022/05/20 02:35:18;;;;;;;8.60;6.47;;;16.10;99.90;;;;;;5011671;28;20025;-74
2022/05/20 02:37:44;;;;;;;12.27;6.72;;;16.00;99.90;;;;;;5011762;28;20030;-74
2022/05/20 02:40:13;;;;;;;9.95;6.40;;;16.00;99.90;;;;;;5011410;28;20036;-75
2022/05/20 02:42:39;;;;;;;7.18;6.00;;;16.00;99.90;;;;;;5011320;28;20026;-74
2022/05/20 02:45:06;;;;;;;9.40;6.03;;;16.00;99.90;;;;;;5011593;28;20484;-74
2022/05/20 02:47:33;;;;;;;8.63;6.20;;;15.80;99.90;;;;;;5011523;28;20034;-74
2022/05/20 02:50:00;;;;;;;9.98;6.78;;;15.80;99.90;;;;;;5017830;28;20490;-74
2022/05/20 02:52:26;;;;;;;9.80;6.22;;;15.70;99.90;;;;;;5017700;28;20069;-73
2022/05/20 02:54:52;;;;;;;11.70;7.38;;;15.90;99.90;;;;;;5000075;28;20532;-75
2022/05/20 02:57:17;;;;;;;7.82;6.00;;;15.90;99.90;;;;;;5013651;28;20507;-74
2022/05/20 03:05:12;;;;;;;8.43;6.68;;;15.70;99.90;;;;;;5011424;28;20036;-74
2022/05/20 03:07:38;;;;;;;9.15;6.60;;;15.70;99.90;;;;;;5011416;28;20034;-74
2022/05/20 03:10:04;;;;;;;7.80;6.10;;;15.70;99.90;;;;;;5022907;28;20036;-74
2022/05/20 03:12:30;;;;;;;11.30;5.85;;;15.80;99.90;;;;;;5030455;28;20105;-74
2022/05/20 03:14:55;;;;;;;7.93;6.35;;;15.90;99.90;;;;;;5013355;28;20064;-72
2022/05/20 03:17:21;;;;;;;8.85;5.45;;;15.90;99.90;;;;;;5031064;28;20041;-74
2022/05/20 03:19:46;;;;;;;10.02;6.38;;;15.80;99.90;;;;;;5030804;28;20044;-75
2022/05/20 03:22:12;;;;;;;7.05;6.28;;;15.60;99.90;;;;;;5030215;28;20030;-72
2022/05/20 03:24:37;;;;;;;8.13;5.95;;;15.60;99.90;;;;;;5030936;28;20100;-74
2022/05/20 03:27:04;;;;;;;7.88;6.28;;;15.60;99.90;;;;;;5030870;28;20035;-75
2022/05/20 03:29:32;;;;;;;10.48;6.25;;;15.70;99.90;;;;;;5032840;28;20572;-75
2022/05/20 03:31:58;;;;;;;10.40;6.47;;;15.70;99.90;;;;;;5033765;28;20057;-74
2022/05/20 03:34:23;;;;;;;8.50;6.20;;;15.60;99.90;;;;;;5034662;28;20052;-75
2022/05/20 03:36:50;;;;;;;10.88;6.35;;;15.70;99.90;;;;;;5034451;28;20022;-73
2022/05/20 03:39:19;;;;;;;10.02;6.15;;;15.60;99.90;;;;;;5022506;28;20026;-73
2022/05/20 03:41:45;;;;;;;9.82;5.95;;;15.60;99.90;;;;;;5014172;28;20029;-72
2022/05/20 03:44:14;;;;;;;10.70;5.93;;;15.70;99.90;;;;;;5015019;28;20026;-72
2022/05/20 03:46:41;;;;;;;9.70;5.97;;;15.80;99.90;;;;;;5014350;28;20026;-75
2022/05/20 03:49:08;;;;;;;10.13;6.20;;;15.90;99.90;;;;;;5014580;28;20057;-76
2022/05/20 03:51:34;;;;;;;8.18;6.22;;;15.80;99.90;;;;;;5013675;28;20056;-74
2022/05/20 03:53:59;;;;;;;8.55;6.45;;;15.80;99.90;;;;;;5014505;28;20018;-74
2022/05/20 03:56:25;;;;;;;7.05;6.20;;;15.70;99.90;;;;;;5027642;28;20190;-72
2022/05/20 03:58:51;;;;;;;13.32;6.82;;;15.80;99.90;;;;;;5014358;28;20108;-72
2022/05/20 04:04:01;;;;;;;12.98;7.82;;;15.60;99.90;;;;;;5019165;28;20037;-74
2022/05/20 04:06:27;;;;;;;10.38;8.15;;;15.30;99.90;;;;;;5014304;28;20100;-73
2022/05/20 04:08:53;;;;;;;10.45;7.93;;;15.20;99.90;;;;;;5014061;28;20160;-73
2022/05/20 04:11:18;;;;;;;12.35;8.25;;;15.20;99.90;;;;;;5021786;28;20099;-73
2022/05/20 04:13:44;;;;;;;8.45;7.57;;;15.30;99.90;;;;;;5033730;28;20172;-72
2022/05/20 04:16:12;;;;;;;8.27;7.47;;;15.30;99.90;;;;;;5033698;28;20103;-74
2022/05/20 04:18:38;;;;;;;10.48;7.68;;;15.30;99.90;;;;;;5033540;28;20391;-74
2022/05/20 04:21:04;;;;;;;11.57;7.93;;;15.50;99.90;;;;;;5032954;28;20033;-75
2022/05/20 04:23:30;;;;;;;11.02;7.57;;;15.70;99.90;;;;;;5015890;28;20025;-74
2022/05/20 04:25:55;;;;;;;13.77;7.80;;;15.80;99.90;;;;;;5033668;28;20036;-73
2022/05/20 04:28:21;;;;;;;10.43;7.13;;;16.00;99.90;;;;;;5033304;28;20501;-73
2022/05/20 04:30:47;;;;;;;8.52;6.90;;;16.30;99.90;;;;;;5032744;28;20017;-75
2022/05/20 04:33:13;;;;;;;11.80;7.40;;;16.30;99.90;;;;;;5033424;28;20075;-72
2022/05/20 04:35:39;;;;;;;8.48;7.28;;;16.00;99.90;;;;;;5033484;28;20013;-74
2022/05/20 04:38:05;;;;;;;8.80;7.72;;;16.00;99.90;;;;;;5033365;28;20030;-75
2022/05/20 04:40:30;;;;;;;8.88;7.82;;;16.00;99.90;;;;;;5013847;28;20094;-75
2022/05/20 04:48:24;;;;;;;8.27;6.70;;;16.40;99.90;;;;;;5033280;28;20035;-74
2022/05/20 04:50:50;;;;;;;12.05;6.75;;;16.50;99.90;;;;;;5032375;28;20112;-75
2022/05/20 04:56:01;;;;;;;15.15;7.70;;;16.40;99.90;;;;;;4999454;28;20136;-75
2022/05/20 04:58:27;;;;;;;7.50;6.15;;;16.50;99.90;;;;;;5013150;28;20077;-72
2022/05/20 05:00:55;;;;;;;9.70;7.30;;;16.80;99.90;;;;;;4994493;28;20037;-74
2022/05/20 05:03:21;;;;;;;10.23;7.70;;;16.60;99.90;;;;;;5024037;28;20026;-75
2022/05/20 05:05:46;;;;;;;10.48;6.80;;;16.50;99.90;;;;;;5013434;28;20026;-75
2022/05/20 05:08:16;;;;;;;12.13;7.05;;;16.50;99.90;;;;;;5012984;28;20041;-75
2022/05/20 05:10:42;;;;;;;12.38;7.70;;;16.70;99.90;;;;;;5012200;28;20487;-75
2022/05/20 05:13:09;;;;;;;13.38;7.60;;;16.70;99.90;;;;;;5012875;28;20484;-75
2022/05/20 05:15:38;;;;;;;10.55;7.35;;;16.50;99.90;;;;;;5012788;28;20419;-77
2022/05/20 05:18:11;;;;;;;9.10;7.60;;;16.70;99.90;;;;;;5005422;28;20139;-76
2022/05/20 05:20:47;;;;;;;9.10;6.95;;;16.70;99.90;;;;;;5013922;28;20034;-76
2022/05/20 05:23:14;;;;;;;15.77;10.88;;;16.70;99.90;;;;;;5032670;28;20018;-76
2022/05/20 05:25:41;;;;;;;10.20;7.40;;;17.00;99.90;;;;;;5032486;28;20030;-75
2022/05/20 05:28:07;;;;;;;10.82;7.15;;;17.20;99.90;;;;;;5032490;28;20057;-74
2022/05/20 05:30:33;;;;;;;13.65;6.95;;;17.50;99.90;;;;;;5031516;28;20057;-74
2022/05/20 05:32:59;;;;;;;9.40;6.88;;;17.50;99.90;;;;;;5014450;28;20427;-74
2022/05/20 05:35:27;;;;;;;13.80;7.00;;;17.80;99.90;;;;;;5032317;28;20032;-74
2022/05/20 05:37:53;;;;;;;11.15;7.13;;;17.90;99.90;;;;;;5032171;28;20025;-74
2022/05/20 05:40:22;;;;;;;8.05;5.60;;;17.90;99.90;;;;;;5031863;28;20017;-74
2022/05/20 05:42:48;;;;;;;9.02;6.03;;;18.10;99.90;;;;;;5032173;28;20433;-74
2022/05/20 05:45:17;;;;;;;8.98;6.25;;;18.00;99.90;;;;;;5014363;28;20026;-74
2022/05/20 05:47:45;;;;;;;8.75;6.40;;;18.20;99.90;;;;;;5031840;28;20037;-74
2022/05/20 05:50:10;;;;;;;10.27;6.45;;;18.20;99.90;;;;;;5031836;28;20394;-74
2022/05/20 05:52:36;;;;;;;6.53;5.82;;;18.40;99.90;;;;;;5031255;28;20036;-74
2022/05/20 05:55:02;;;;;;;10.55;6.50;;;18.50;99.90;;;;;;5032052;28;20030;-74
2022/05/20 05:57:28;;;;;;;8.43;6.20;;;18.50;99.90;;;;;;5017493;28;20030;-74
2022/05/20 05:59:55;;;;;;;9.52;6.50;;;18.70;99.90;;;;;;4994434;28;20029;-74
2022/05/20 06:02:21;;;;;;;12.50;6.57;;;19.00;99.90;;;;;;5053519;22;20048;-76
2022/05/20 06:04:47;;;;;;;9.77;6.68;;;19.00;99.90;;;;;;5041658;28;20360;-76
2022/05/20 06:07:14;;;;;;;27.13;16.50;;;19.20;99.90;;;;;;5070596;28;20048;-76
2022/05/20 06:09:40;;;;;;;8.60;5.80;;;19.40;99.90;;;;;;5045097;28;20025;-76
2022/05/20 06:12:07;;;;;;;8.50;5.85;;;19.60;99.90;;;;;;5046147;28;20025;-76
2022/05/20 06:14:32;;;;;;;9.02;6.03;;;19.70;99.90;;;;;;5030387;28;20025;-76
2022/05/20 06:16:58;;;;;;;8.70;6.25;;;19.50;99.90;;;;;;5030608;28;20026;-74
2022/05/20 06:19:23;;;;;;;8.77;5.90;;;19.50;99.90;;;;;;5030339;28;20475;-74
2022/05/20 06:21:49;;;;;;;7.93;5.95;;;19.70;99.90;;;;;;5030824;28;20040;-76
2022/05/20 06:24:14;;;;;;;8.35;5.32;;;20.10;99.90;;;;;;5031946;28;20075;-76
2022/05/20 06:26:41;;;;;;;6.95;5.93;;;20.00;99.90;;;;;;5031502;28;20525;-76
2022/05/20 06:29:07;;;;;;;7.57;5.97;;;20.00;99.90;;;;;;5031273;28;20021;-76
2022/05/20 06:31:33;;;;;;;7.30;5.05;;;19.80;99.90;;;;;;5031880;28;20028;-76
2022/05/20 06:33:58;;;;;;;6.53;5.53;;;19.70;99.90;;;;;;5048891;28;20025;-76
2022/05/20 06:39:48;;;;;;;7.63;5.65;;;20.00;99.90;;;;;;5031788;28;20036;-76
2022/05/20 06:42:13;;;;;;;10.25;5.75;;;20.10;99.90;;;;;;5030603;28;20036;-76
2022/05/20 06:44:39;;;;;;;14.95;6.30;;;20.10;99.90;;;;;;5030002;28;20021;-77
2022/05/20 06:47:05;;;;;;;6.15;5.40;;;20.10;99.90;;;;;;5033467;28;20029;-76
2022/05/20 06:49:31;;;;;;;8.07;5.88;;;20.20;99.90;;;;;;5037911;28;20029;-77
2022/05/20 06:51:56;;;;;;;8.70;5.43;;;20.30;99.90;;;;;;5036314;28;20025;-76
2022/05/20 06:54:23;;;;;;;6.07;5.47;;;20.40;99.90;;;;;;5047604;28;20017;-76
2022/05/20 06:56:48;;;;;;;9.15;6.13;;;20.20;99.90;;;;;;5054740;28;20397;-77
2022/05/20 06:59:14;;;;;;;7.53;5.82;;;20.20;99.90;;;;;;5051196;28;20028;-78
2022/05/20 07:01:40;;;;;;;12.68;5.65;;;20.20;99.90;;;;;;5051473;28;20406;-77
2022/05/20 07:04:06;;;;;;;7.80;5.60;;;20.30;99.90;;;;;;5056114;28;20028;-78
2022/05/20 07:06:32;;;;;;;7.78;6.00;;;20.20;99.90;;;;;;5057173;28;20112;-77
2022/05/20 07:08:59;;;;;;;7.72;5.80;;;20.40;99.90;;;;;;5055975;28;20100;-78
2022/05/20 07:11:25;;;;;;;5.82;5.03;;;20.40;99.90;;;;;;5054679;28;20389;-77
2022/05/20 07:13:55;;;;;;;6.20;4.93;;;20.30;99.90;;;;;;5054794;28;20024;-76
2022/05/20 07:16:25;;;;;;;7.90;5.55;;;20.30;99.90;;;;;;5054945;28;20029;-76
2022/05/20 07:18:51;;;;;;;8.55;5.45;;;20.30;99.90;;;;;;5055266;28;20032;-77
2022/05/20 07:21:17;;;;;;;7.65;5.13;;;20.20;99.90;;;;;;5054009;28;20406;-76
2022/05/20 07:23:42;;;;;;;8.20;5.60;;;20.30;99.90;;;;;;5050081;28;20021;-76
2022/05/20 07:26:08;;;;;;;8.18;5.57;;;20.30;99.90;;;;;;5033453;28;20116;-76
2022/05/20 07:28:34;;;;;;;10.82;5.68;;;20.40;99.90;;;;;;5037581;28;20494;-76
2022/05/20 07:31:00;;;;;;;8.85;5.68;;;20.40;99.90;;;;;;5051623;28;20036;-75
2022/05/20 07:33:26;;;;;;;6.93;5.93;;;20.30;99.90;;;;;;5037737;28;20028;-76
2022/05/20 07:35:52;;;;;;;8.90;5.97;;;20.50;99.90;;;;;;5034484;28;20036;-76
2022/05/20 07:38:17;;;;;;;6.43;5.80;;;20.40;99.90;;;;;;5034453;28;20391;-76
2022/05/20 07:40:44;;;;;;;8.77;6.13;;;20.50;99.90;;;;;;5039012;28;20033;-76
2022/05/20 07:43:10;;;;;;;13.70;7.65;;;20.40;99.90;;;;;;5045753;28;20395;-76
2022/05/20 07:45:36;;;;;;;11.55;9.43;;;19.90;99.90;;;;;;5046955;28;20024;-76
2022/05/20 07:48:01;;;;;;;13.73;11.75;;;20.00;99.90;;;;;;5042327;28;20108;-76
2022/05/20 07:50:28;;;;;;;15.70;9.25;;;19.70;99.90;;;;;;5034059;28;20021;-76
2022/05/20 07:55:41;;;;;;;;;;;20.00;99.90;;;;;;5047711;28;20051;-76
2022/05/20 07:58:11;;;;;;;13.18;10.98;;;20.10;99.90;;;;;;5052203;28;20384;-76
2022/05/20 08:00:37;;;;;;;11.20;10.10;;;20.10;99.90;;;;;;5032195;28;20038;-76
2022/05/20 08:03:04;;;;;;;12.07;9.73;;;20.20;99.90;;;;;;5051743;28;20112;-76
2022/05/20 08:05:31;;;;;;;15.57;12.07;;;20.40;99.90;;;;;;5053929;28;20040;-76
2022/05/20 08:08:00;;;;;;;12.38;10.32;;;20.20;99.90;;;;;;5053881;28;20078;-76
2022/05/20 08:10:29;;;;;;;16.63;10.55;;;20.20;99.90;;;;;;5053166;28;20017;-77
2022/05/20 08:12:54;;;;;;;13.50;10.88;;;20.50;99.90;;;;;;5052172;28;20027;-77
2022/05/20 08:15:20;;;;;;;14.27;10.50;;;20.80;99.90;;;;;;5053442;28;20095;-76
2022/05/20 08:17:46;;;;;;;11.82;9.98;;;21.00;99.90;;;;;;5036589;28;20025;-76
2022/05/20 08:20:21;;;;;;;11.30;10.10;;;21.10;99.90;;;;;;5033365;28;20041;-76
2022/05/20 08:22:46;;;;;;;11.38;8.85;;;21.30;99.90;;;;;;5041360;28;20021;-76
2022/05/20 08:25:12;;;;;;;14.05;9.82;;;21.50;99.90;;;;;;5036429;28;20483;-77
2022/05/20 08:27:38;;;;;;;10.13;9.23;;;21.50;99.90;;;;;;5041852;28;20072;-77
2022/05/20 08:30:08;;;;;;;11.82;9.40;;;21.70;99.90;;;;;;5051472;28;20041;-76
2022/05/20 08:32:33;;;;;;;13.20;7.93;;;21.60;99.90;;;;;;5034558;28;20060;-76
2022/05/20 08:34:59;;;;;;;10.52;7.22;;;22.00;99.90;;;;;;5042873;28;20026;-76
2022/05/20 08:37:24;;;;;;;8.88;7.05;;;22.40;99.90;;;;;;5053349;28;20486;-76
2022/05/20 08:39:50;;;;;;;10.05;6.90;;;22.10;99.90;;;;;;5038872;28;20116;-77
2022/05/20 08:42:21;;;;;;;6.78;5.53;;;22.10;99.90;;;;;;5042831;28;20099;-76
2022/05/20 08:44:47;;;;;;;6.18;5.57;;;22.40;99.90;;;;;;5049167;28;20041;-76
2022/05/20 08:47:23;;;;;;;7.45;5.20;;;22.70;99.90;;;;;;5033364;28;20036;-76
2022/05/20 08:49:51;;;;;;;12.65;6.60;;;23.10;99.90;;;;;;5033426;28;20028;-76
2022/05/20 08:52:18;;;;;;;6.57;5.45;;;23.00;99.90;;;;;;5032562;28;20522;-77
2022/05/20 08:54:43;;;;;;;8.23;6.65;;;23.10;99.90;;;;;;5038160;28;20474;-76
2022/05/20 08:57:20;;;;;;;9.05;6.25;;;22.90;99.90;;;;;;5051400;28;20104;-76
2022/05/20 08:59:45;;;;;;;7.50;6.75;;;23.20;99.90;;;;;;5037021;28;20053;-77
2022/05/20 09:02:11;;;;;;;11.13;6.03;;;22.70;99.90;;;;;;5041483;28;20446;-76
2022/05/20 09:04:37;;;;;;;7.47;6.28;;;22.50;99.90;;;;;;5052630;28;20103;-76
2022/05/20 09:07:09;;;;;;;9.40;5.70;;;22.50;99.90;;;;;;5052668;28;20060;-76
2022/05/20 09:09:54;;;;;;;9.93;5.47;;;22.80;99.90;;;;;;5052683;28;20445;-76
2022/05/20 09:12:39;;;;;;;7.75;5.70;;;22.90;99.90;;;;;;5052107;28;20017;-76
2022/05/20 09:18:02;;;;;;;7.38;6.22;;;23.00;99.90;;;;;;5052525;28;20048;-76
2022/05/20 09:20:28;;;;;;;6.85;5.57;;;23.00;99.90;;;;;;5039786;28;20040;-76
2022/05/20 09:22:58;;;;;;;6.88;6.03;;;23.10;99.90;;;;;;5043675;28;20037;-77
2022/05/20 09:25:32;;;;;;;8.38;5.65;;;23.30;99.90;;;;;;5049516;28;20039;-76
2022/05/20 09:28:38;;;;;;;9.32;5.10;;;23.80;99.90;;;;;;5051860;28;20053;-77
2022/05/20 09:31:16;;;;;;;10.02;5.50;;;24.00;99.90;;;;;;5041667;28;20025;-77
2022/05/20 09:33:50;;;;;;;6.35;5.28;;;23.90;99.90;;;;;;5047235;28;20390;-77
2022/05/20 09:36:43;;;;;;;6.50;5.30;;;23.60;99.90;;;;;;5038294;28;20025;-76
2022/05/20 09:39:14;;;;;;;8.93;5.32;;;24.00;99.90;;;;;;5030985;28;20067;-76
2022/05/20 09:42:16;;;;;;;8.15;5.85;;;23.90;99.90;;;;;;5044869;28;20078;-76
2022/05/20 09:44:48;;;;;;;6.82;5.57;;;24.00;99.90;;;;;;5033886;28;20491;-77
2022/05/20 09:47:19;;;;;;;6.43;5.55;;;24.20;99.90;;;;;;5049297;28;20420;-76
2022/05/20 09:49:54;;;;;;;10.18;6.07;;;24.20;99.90;;;;;;5039256;28;20044;-76
2022/05/20 09:52:41;;;;;;;7.40;5.40;;;24.30;99.90;;;;;;5040255;28;20021;-76
2022/05/20 09:55:29;;;;;;;6.55;5.40;;;24.30;99.90;;;;;;5040829;28;20055;-76
2022/05/20 09:58:13;;;;;;;7.03;5.32;;;24.70;99.90;;;;;;5047245;28;20029;-76
2022/05/20 10:00:43;;;;;;;5.93;5.22;;;24.50;99.90;;;;;;5031524;28;20045;-76
2022/05/20 10:03:15;;;;;;;7.75;5.22;;;24.70;99.90;;;;;;5048082;28;20028;-76
2022/05/20 10:05:54;;;;;;;7.63;5.32;;;25.00;99.90;;;;;;5045395;28;20482;-76
2022/05/20 10:08:30;;;;;;;7.88;4.68;;;25.20;99.90;;;;;;5039855;28;20022;-76
2022/05/20 10:11:17;;;;;;;7.68;5.45;;;25.10;99.90;;;;;;5048055;28;20021;-77
2022/05/20 10:13:55;;;;;;;7.78;6.00;;;25.30;99.90;;;;;;5036962;28;20049;-77
2022/05/20 10:16:50;;;;;;;6.28;5.03;;;25.30;99.90;;;;;;5031595;28;20021;-73
2022/05/20 10:19:36;;;;;;;9.65;5.20;;;25.50;99.90;;;;;;5047466;28;20024;-76
2022/05/20 10:22:24;;;;;;;9.10;5.32;;;25.90;99.90;;;;;;5030952;28;20057;-77
2022/05/20 10:24:58;;;;;;;6.15;4.90;;;25.90;99.90;;;;;;5035363;28;20033;-77
2022/05/20 10:27:27;;;;;;;6.05;4.88;;;25.90;99.90;;;;;;5033486;28;20021;-76
2022/05/20 10:33:20;;;;;;;5.32;4.75;;;26.50;99.90;;;;;;5032498;28;20044;-77
2022/05/20 10:35:58;;;;;;;7.80;4.88;;;26.50;99.90;;;;;;5032944;28;20386;-76
2022/05/20 10:38:42;;;;;;;8.02;4.80;;;26.70;99.90;;;;;;5047627;28;20025;-78
2022/05/20 10:41:12;;;;;;;6.10;5.03;;;26.70;99.90;;;;;;5055267;28;20031;-78
2022/05/20 10:49:29;;;;;;;7.25;5.28;;;26.60;99.90;;;;;;5037022;28;20167;-76
2022/05/20 10:52:24;;;;;;;5.45;4.95;;;26.70;99.90;;;;;;5043207;28;20013;-76
2022/05/20 10:55:09;;;;;;;6.82;5.15;;;27.00;99.90;;;;;;5046133;28;20032;-79
2022/05/20 10:58:06;;;;;;;7.03;4.85;;;27.00;99.90;;;;;;5051808;28;20088;-78
2022/05/20 11:00:38;;;;;;;;;;;27.20;99.90;;;;;;5048991;28;20071;-79
2022/05/20 11:03:32;;;;;;;7.95;5.63;;;27.10;99.90;;;;;;5055086;28;19920;-77
2022/05/20 11:06:25;;;;;;;8.32;5.13;;;27.20;99.90;;;;;;5046339;28;20479;-78
2022/05/20 11:09:04;;;;;;;6.05;5.45;;;27.30;99.90;;;;;;5035486;28;20545;-78
2022/05/20 11:11:53;;;;;;;8.00;5.13;;;27.20;99.90;;;;;;5042335;28;20033;-78
2022/05/20 11:14:41;;;;;;;5.63;4.93;;;26.80;99.90;;;;;;5043951;28;20548;-78
2022/05/20 11:17:28;;;;;;;6.13;4.63;;;27.00;99.90;;;;;;5041616;28;20044;-79
2022/05/20 11:20:10;;;;;;;6.82;5.63;;;27.20;99.90;;;;;;5041524;28;20017;-78
2022/05/20 11:23:21;;;;;;;9.23;5.07;;;27.20;99.90;;;;;;5040134;28;20103;-78
2022/05/20 11:26:11;;;;;;;7.63;5.50;;;27.20;99.90;;;;;;5040021;28;20029;-77
2022/05/20 11:29:12;;;;;;;7.80;5.40;;;26.80;99.90;;;;;;5044979;28;20068;-77
2022/05/20 11:31:41;;;;;;;5.72;5.20;;;27.40;99.90;;;;;;5046477;28;20501;-78
2022/05/20 11:34:21;;;;;;;6.75;5.57;;;27.70;99.90;;;;;;5033969;28;20402;-78
2022/05/20 11:37:21;;;;;;;7.43;5.63;;;27.30;99.90;;;;;;5035096;28;20021;-78
2022/05/20 11:40:08;;;;;;;9.02;5.78;;;27.80;99.90;;;;;;5036892;28;20150;-78
2022/05/20 11:42:58;;;;;;;10.82;6.07;;;28.20;99.90;;;;;;5059904;28;20025;-78
2022/05/20 11:45:29;;;;;;;7.20;5.30;;;27.60;99.90;;;;;;5044683;28;20104;-78
2022/05/20 11:48:25;;;;;;;5.57;5.07;;;27.80;99.90;;;;;;5052036;28;20474;-79
2022/05/20 11:51:03;;;;;;;6.03;4.93;;;28.70;99.90;;;;;;5034534;28;20120;-76
2022/05/20 11:53:57;;;;;;;9.43;5.50;;;28.90;99.90;;;;;;5043721;28;20025;-77
2022/05/20 11:56:39;;;;;;;8.00;5.05;;;29.30;99.90;;;;;;5055291;28;20045;-78
2022/05/20 11:59:20;;;;;;;6.57;5.10;;;29.30;99.90;;;;;;5052954;28;20072;-75
2022/05/20 12:01:49;;;;;;;8.30;5.45;;;29.50;99.90;;;;;;5043052;28;20459;-78
2022/05/20 12:04:17;;;;;;;6.82;5.38;;;29.40;99.90;;;;;;5054935;28;20029;-77
2022/05/20 12:06:53;;;;;;;6.68;5.50;;;29.20;99.90;;;;;;5054531;28;20029;-77
2022/05/20 12:09:46;;;;;;;5.97;4.70;;;29.50;99.90;;;;;;5054650;28;20115;-77
2022/05/20 12:12:33;;;;;;;7.18;4.65;;;28.80;99.90;;;;;;5037830;28;20045;-77
2022/05/20 12:15:14;;;;;;;8.50;5.90;;;28.70;99.90;;;;;;5042512;28;20022;-77
2022/05/20 12:17:45;;;;;;;8.90;5.35;;;28.10;99.90;;;;;;5041189;28;20032;-77
2022/05/20 12:25:58;;;;;;;10.57;5.70;;;27.50;99.90;;;;;;5042872;28;20059;-78
2022/05/20 12:28:23;;;;;;;8.38;4.75;;;28.20;99.90;;;;;;5051615;28;20055;-77
2022/05/20 12:31:13;;;;;;;6.45;4.90;;;28.90;99.90;;;;;;5050502;28;20025;-78
2022/05/20 12:33:56;;;;;;;6.50;5.00;;;28.50;99.90;;;;;;5049889;28;20434;-78
2022/05/20 12:36:28;;;;;;;6.53;5.22;;;28.50;99.90;;;;;;5046843;28;20450;-77
2022/05/20 12:39:09;;;;;;;10.52;5.57;;;28.90;99.90;;;;;;5053231;28;20035;-77
2022/05/20 12:41:43;;;;;;;7.85;4.65;;;29.30;99.90;;;;;;5041207;28;20056;-77
2022/05/20 12:44:21;;;;;;;9.83;5.30;;;28.30;99.90;;;;;;5043307;28;20052;-77
2022/05/20 12:47:05;;;;;;;8.95;5.30;;;28.80;99.90;;;;;;5047801;28;20395;-78
2022/05/20 12:49:37;;;;;;;8.52;4.90;;;29.00;99.90;;;;;;5048106;28;20029;-78
2022/05/20 12:52:31;;;;;;;8.85;5.30;;;29.00;99.90;;;;;;5044293;28;20025;-77
2022/05/20 12:55:01;;;;;;;5.80;4.95;;;29.60;99.90;;;;;;5053111;28;20056;-78
2022/05/20 12:57:35;;;;;;;6.55;5.05;;;29.70;99.90;;;;;;5039081;28;20037;-79
2022/05/20 13:00:09;;;;;;;6.32;5.43;;;29.90;99.90;;;;;;5040709;28;20546;-77
2022/05/20 13:02:39;;;;;;;9.55;5.35;;;30.10;99.90;;;;;;5048352;28;20041;-77
2022/05/20 13:05:28;;;;;;;8.68;5.93;;;29.80;99.90;;;;;;5043728;28;20031;-78
2022/05/20 13:07:55;;;;;;;7.95;5.22;;;29.70;99.90;;;;;;5039724;28;20112;-79
2022/05/20 13:10:24;;;;;;;9.77;6.25;;;29.50;99.90;;;;;;5050616;28;20025;-79
2022/05/20 13:12:52;;;;;;;10.02;5.57;;;30.60;99.90;;;;;;5040519;28;20410;-78
2022/05/20 13:15:19;;;;;;;8.38;5.72;;;31.10;99.90;;;;;;5046346;28;20386;-78
2022/05/20 13:18:00;;;;;;;9.82;6.20;;;30.90;99.90;;;;;;5045864;28;21340;-80
2022/05/20 13:20:28;;;;;;;8.45;5.95;;;31.00;99.90;;;;;;5038604;28;20906;-76
2022/05/20 13:22:59;;;;;;;11.65;5.75;;;31.80;99.90;;;;;;5051330;28;20037;-79
2022/05/20 13:25:25;;;;;;;8.98;5.70;;;31.30;99.90;;;;;;5039386;28;20074;-80
2022/05/20 13:27:50;;;;;;;7.35;5.80;;;31.30;99.90;;;;;;5041218;28;20427;-78
2022/05/20 13:30:19;;;;;;;10.38;6.50;;;29.80;99.90;;;;;;5047932;28;20437;-80
2022/05/20 13:32:45;;;;;;;10.98;6.80;;;31.20;99.90;;;;;;5052425;28;20104;-77
2022/05/20 13:35:10;;;;;;;9.43;7.05;;;31.50;99.90;;;;;;5047898;28;20056;-77
2022/05/20 13:37:40;;;;;;;8.40;6.60;;;31.00;99.90;;;;;;5043458;28;20040;-76
2022/05/20 13:40:19;;;;;;;9.75;6.53;;;30.60;99.90;;;;;;5032755;28;20733;-76
2022/05/20 13:42:50;;;;;;;10.00;6.70;;;29.90;99.90;;;;;;5044373;28;20071;-78
2022/05/20 13:45:18;;;;;;;8.82;6.65;;;29.90;99.90;;;;;;5038559;28;20028;-78
2022/05/20 13:50:29;;;;;;;8.32;6.43;;;31.40;99.90;;;;;;5041507;28;20117;-79